Time;durP1;ratioP1;P1;durP2;ratioP2;P2;SDS_P1;SDS_P2;PMS_P1;PMS_P2;Temp;Humidity;BMP_temperature;BMP_pressure;BME280_temperature;BME280_humidity;BME280_pressure;Samples;Min_cycle;Max_cycle;Signal;HPM_P1;HPM_P2
2024/04/05 00:02:45;;;;;;;8.25;2.33;;;;;;;9.56;100.00;100821.72;10067614;28;20047;-73
2024/04/05 00:07:40;;;;;;;14.25;3.53;;;;;;;9.64;100.00;100833.81;10046583;28;20476;-71
2024/04/05 00:12:36;;;;;;;15.60;3.17;;;;;;;9.60;100.00;100827.34;10043862;28;20051;-71
2024/04/05 00:17:31;;;;;;;12.75;2.90;;;;;;;9.56;100.00;100826.34;10062111;28;20271;-70
2024/04/05 00:22:27;;;;;;;14.55;2.90;;;;;;;9.56;100.00;100826.34;10081345;28;20114;-70
2024/04/05 00:27:23;;;;;;;15.07;3.58;;;;;;;9.58;100.00;100826.84;10076222;28;20416;-71
2024/04/05 00:32:19;;;;;;;11.15;3.40;;;;;;;9.51;100.00;100823.75;10062558;28;20036;-71
2024/04/05 00:37:15;;;;;;;13.30;3.60;;;;;;;9.58;100.00;100821.38;10056032;28;20067;-71
2024/04/05 00:42:10;;;;;;;14.32;4.28;;;;;;;9.67;100.00;100822.28;10057594;28;20057;-71
2024/04/05 00:47:06;;;;;;;13.85;3.85;;;;;;;9.74;100.00;100822.66;10074973;28;20058;-71
2024/04/05 00:52:03;;;;;;;20.02;4.43;;;;;;;9.78;100.00;100815.44;10079605;28;20039;-72
2024/04/05 00:56:59;;;;;;;12.80;3.65;;;;;;;9.83;100.00;100820.78;10060667;28;20048;-73
2024/04/05 01:01:54;;;;;;;11.77;3.70;;;;;;;9.81;100.00;100833.13;10045479;28;20411;-71
2024/04/05 01:06:51;;;;;;;17.05;4.18;;;;;;;9.82;100.00;100824.66;10067884;28;20411;-71
2024/04/05 01:11:57;;;;;;;12.00;4.22;;;;;;;9.85;100.00;100829.47;10077219;28;20055;-71
2024/04/05 01:16:52;;;;;;;16.50;4.75;;;;;;;9.94;100.00;100836.94;10096494;28;20070;-73
2024/04/05 01:21:51;;;;;;;16.77;4.25;;;;;;;9.96;100.00;100851.09;10074585;28;20507;-72
2024/04/05 01:26:46;;;;;;;15.75;4.60;;;;;;;9.99;100.00;100855.94;10075594;28;20444;-71
2024/04/05 01:31:42;;;;;;;11.60;3.65;;;;;;;10.01;100.00;100848.25;10060734;28;20071;-72
2024/04/05 01:36:37;;;;;;;18.25;3.58;;;;;;;10.02;100.00;100849.84;10051945;28;20051;-71
2024/04/05 01:41:35;;;;;;;25.23;4.82;;;;;;;10.07;100.00;100842.34;10093777;28;20434;-71
2024/04/05 01:46:31;;;;;;;18.85;4.20;;;;;;;10.06;100.00;100834.44;10087230;28;20070;-71
2024/04/05 01:51:26;;;;;;;17.70;4.07;;;;;;;10.04;100.00;100836.69;10069989;28;20047;-72
2024/04/05 01:56:22;;;;;;;19.77;3.95;;;;;;;9.99;100.00;100828.63;10082478;28;20043;-70
2024/04/05 02:01:17;;;;;;;24.85;4.18;;;;;;;9.96;100.00;100823.78;10091833;28;20039;-71
2024/04/05 02:06:15;;;;;;;16.23;3.28;;;;;;;9.94;100.00;100824.09;10069357;28;20051;-71
2024/04/05 02:11:11;;;;;;;20.48;4.32;;;;;;;9.90;100.00;100826.63;10043338;28;20097;-73
2024/04/05 02:16:06;;;;;;;28.08;4.35;;;;;;;9.96;100.00;100834.72;10068887;28;20126;-73
2024/04/05 02:21:02;;;;;;;32.67;5.57;;;;;;;10.05;100.00;100838.31;10089423;28;20039;-74
2024/04/05 02:25:58;;;;;;;22.95;3.95;;;;;;;9.92;100.00;100833.72;10073102;28;20047;-74
2024/04/05 02:30:53;;;;;;;21.45;4.70;;;;;;;9.81;100.00;100828.47;10070516;28;20047;-73
2024/04/05 02:35:58;;;;;;;34.10;6.70;;;;;;;9.84;100.00;100837.97;10071050;28;20047;-72
2024/04/05 02:40:54;;;;;;;25.55;4.55;;;;;;;9.87;100.00;100843.63;10052988;28;20086;-73
2024/04/05 02:45:49;;;;;;;19.55;4.07;;;;;;;9.96;100.00;100856.56;10087635;28;20075;-72
2024/04/05 02:50:45;;;;;;;25.00;4.40;;;;;;;10.05;100.00;100843.78;10083852;28;20043;-72
2024/04/05 02:55:40;;;;;;;25.65;4.32;;;;;;;10.14;100.00;100846.53;10046991;28;20051;-71
2024/04/05 03:00:38;;;;;;;22.42;4.50;;;;;;;10.18;100.00;100848.34;10068257;28;20051;-71
2024/04/05 03:05:33;;;;;;;23.58;4.78;;;;;;;10.22;100.00;100860.28;10068848;28;20074;-71
2024/04/05 03:10:30;;;;;;;32.28;5.32;;;;;;;10.26;100.00;100861.25;10075903;28;20392;-73
2024/04/05 03:15:25;;;;;;;24.48;4.90;;;;;;;10.26;100.00;100864.00;10073165;28;20050;-72
2024/04/05 03:20:21;;;;;;;19.27;4.28;;;;;;;10.25;100.00;100873.31;10066034;28;20057;-73
2024/04/05 03:25:16;;;;;;;21.58;4.82;;;;;;;10.13;100.00;100872.25;10072911;28;20045;-71
2024/04/05 03:30:12;;;;;;;26.23;4.88;;;;;;;10.05;100.00;100865.63;10032367;28;20118;-72
2024/04/05 03:35:08;;;;;;;17.60;5.13;;;;;;;9.90;100.00;100873.06;10067018;28;20051;-72
2024/04/05 03:40:04;;;;;;;27.17;5.55;;;;;;;9.83;100.00;100878.13;10041191;28;20078;-72
2024/04/05 03:44:59;;;;;;;35.70;5.53;;;;;;;9.82;100.00;100879.25;10063585;28;20526;-72
2024/04/05 03:49:55;;;;;;;32.63;5.95;;;;;;;9.79;100.00;100890.78;10039477;28;20126;-72
2024/04/05 03:54:51;;;;;;;33.08;5.13;;;;;;;9.78;100.00;100889.19;10086857;28;20059;-72
2024/04/05 03:59:47;;;;;;;24.95;3.97;;;;;;;9.75;100.00;100895.28;10031198;28;20055;-73
2024/04/05 04:04:42;;;;;;;35.63;6.55;;;;;;;9.75;100.00;100899.91;10061005;28;20075;-73
2024/04/05 04:09:38;;;;;;;26.20;5.60;;;;;;;9.73;100.00;100897.50;10042992;28;20051;-74
2024/04/05 04:14:34;;;;;;;30.00;4.75;;;;;;;9.77;100.00;100901.22;10062770;28;20052;-73
2024/04/05 04:19:29;;;;;;;27.27;5.15;;;;;;;9.79;100.00;100896.25;10086885;28;20062;-74
2024/04/05 04:24:25;;;;;;;22.58;4.03;;;;;;;9.78;100.00;100897.38;10069132;28;20418;-73
2024/04/05 04:29:20;;;;;;;18.88;4.70;;;;;;;9.77;100.00;100898.50;10037467;28;20576;-74
2024/04/05 04:34:17;;;;;;;17.40;4.15;;;;;;;9.84;100.00;100904.34;10062327;28;20048;-73
2024/04/05 04:39:13;;;;;;;17.60;4.10;;;;;;;9.90;100.00;100911.28;10065012;28;20058;-74
2024/04/05 04:44:08;;;;;;;25.70;4.70;;;;;;;9.88;100.00;100908.06;10066810;28;20032;-72
2024/04/05 04:49:04;;;;;;;22.33;3.72;;;;;;;9.83;100.00;100924.56;10065255;28;20047;-73
2024/04/05 04:54:00;;;;;;;26.05;4.78;;;;;;;9.81;100.00;100907.66;10056690;28;20508;-73
2024/04/05 04:58:55;;;;;;;24.98;5.45;;;;;;;9.75;100.00;100900.72;10041336;28;20558;-73
2024/04/05 05:03:52;;;;;;;20.35;4.20;;;;;;;9.77;100.00;100906.69;10072521;28;20490;-73
2024/04/05 05:08:47;;;;;;;25.38;5.82;;;;;;;9.79;100.00;100922.75;10077702;28;20126;-74
2024/04/05 05:13:43;;;;;;;24.83;4.70;;;;;;;9.79;100.00;100929.00;10067517;28;20039;-72
2024/04/05 05:18:38;;;;;;;20.40;5.35;;;;;;;9.81;100.00;100913.13;10081337;28;20047;-74
2024/04/05 05:23:34;;;;;;;26.88;6.32;;;;;;;9.84;100.00;100920.72;10090384;28;20065;-74
2024/04/05 05:28:29;;;;;;;25.88;4.68;;;;;;;9.88;100.00;100926.38;10094169;28;20117;-73
2024/04/05 05:33:25;;;;;;;21.60;6.00;;;;;;;9.93;100.00;100939.09;10056049;28;20075;-74
2024/04/05 05:38:21;;;;;;;26.88;4.93;;;;;;;9.96;100.00;100943.97;10066167;28;20043;-74
2024/04/05 05:43:16;;;;;;;21.30;5.45;;;;;;;10.03;100.00;100949.81;10079693;28;20054;-73
2024/04/05 05:48:12;;;;;;;41.10;7.32;;;;;;;10.06;100.00;100954.66;10066018;28;20035;-73
2024/04/05 05:53:07;;;;;;;21.45;5.20;;;;;;;10.10;100.00;100966.59;10071326;28;20049;-73
2024/04/05 05:58:03;;;;;;;23.17;6.07;;;;;;;10.13;100.00;100955.03;10068904;28;20039;-73
2024/04/05 06:02:59;;;;;;;20.75;4.90;;;;;;;10.16;100.00;100965.34;10080321;28;20050;-74
2024/04/05 06:07:54;;;;;;;31.55;6.35;;;;;;;10.18;100.00;100974.03;10106450;28;20086;-74
2024/04/05 06:12:50;;;;;;;22.48;5.35;;;;;;;10.18;100.00;100979.50;10071481;28;20039;-75
2024/04/05 06:17:46;;;;;;;23.75;4.80;;;;;;;10.19;100.00;100986.59;10071405;28;20473;-78
2024/04/05 06:22:42;;;;;;;23.35;5.03;;;;;;;10.28;100.00;100990.25;10072191;28;20071;-75
2024/04/05 06:27:37;;;;;;;20.15;4.47;;;;;;;10.42;100.00;100989.34;10076578;28;20519;-74
2024/04/05 06:32:33;;;;;;;25.83;5.38;;;;;;;10.52;100.00;101000.06;10087109;28;20050;-77
2024/04/05 06:37:29;;;;;;;17.35;5.00;;;;;;;10.57;100.00;100978.06;10088778;28;20046;-75
2024/04/05 06:42:24;;;;;;;20.10;4.65;;;;;;;10.59;100.00;100973.09;10076742;28;20043;-75
2024/04/05 06:47:21;;;;;;;17.95;5.35;;;;;;;10.62;100.00;100983.41;10048504;28;20057;-75
2024/04/05 06:52:16;;;;;;;29.77;6.28;;;;;;;10.58;100.00;100976.94;10052548;28;20079;-74
2024/04/05 06:57:12;;;;;;;19.33;5.88;;;;;;;10.67;100.00;100980.53;10101631;28;20098;-72
2024/04/05 07:02:08;;;;;;;25.00;6.78;;;;;;;10.77;100.00;100984.13;10099228;28;20043;-72
2024/04/05 07:07:03;;;;;;;25.45;5.90;;;;;;;10.93;100.00;100986.19;10056427;28;20062;-71
2024/04/05 07:12:02;;;;;;;20.88;5.28;;;;;;;11.03;100.00;100985.09;10036901;28;20098;-72
2024/04/05 07:16:58;;;;;;;19.55;5.18;;;;;;;11.12;100.00;100975.00;10054646;28;20075;-71
2024/04/05 07:21:53;;;;;;;29.27;6.68;;;;;;;11.05;100.00;100984.78;10066424;28;20682;-71
2024/04/05 07:26:49;;;;;;;18.50;4.75;;;;;;;11.04;100.00;100988.63;10064735;28;20044;-71
2024/04/05 07:31:48;;;;;;;24.45;7.00;;;;;;;11.08;100.00;100978.69;10054365;28;20101;-71
2024/04/05 07:36:44;;;;;;;24.33;5.88;;;;;;;11.09;100.00;100983.03;10085346;28;20067;-70
2024/04/05 07:41:40;;;;;;;25.50;5.32;;;;;;;11.15;100.00;100979.03;10085718;28;20075;-71
2024/04/05 07:46:36;;;;;;;21.17;4.60;;;;;;;11.21;100.00;100991.47;10089799;28;20074;-70
2024/04/05 07:51:31;;;;;;;22.70;5.03;;;;;;;11.31;100.00;100999.38;10085296;28;20046;-71
2024/04/05 07:56:27;;;;;;;19.95;4.70;;;;;;;11.27;100.00;100992.13;10082199;28;20446;-72
2024/04/05 08:01:23;;;;;;;20.27;5.78;;;;;;;11.30;100.00;100994.22;10066231;28;20454;-71
2024/04/05 08:06:19;;;;;;;18.08;5.63;;;;;;;11.30;100.00;100992.31;10069351;28;20081;-70
2024/04/05 08:11:14;;;;;;;23.85;4.60;;;;;;;11.32;100.00;100976.34;10080516;28;20150;-71
2024/04/05 08:16:10;;;;;;;15.60;4.13;;;;;;;11.44;100.00;100975.78;10059960;28;20428;-72
2024/04/05 08:21:05;;;;;;;17.98;4.78;;;;;;;11.50;100.00;100963.53;10035332;28;20047;-71
2024/04/05 08:26:01;;;;;;;22.35;4.97;;;;;;;11.54;100.00;100964.53;10059162;28;20078;-70
2024/04/05 08:30:57;;;;;;;23.63;5.15;;;;;;;11.69;100.00;100976.16;10066606;28;20047;-70
2024/04/05 08:35:54;;;;;;;17.95;5.00;;;;;;;11.80;100.00;100966.50;10071394;28;20508;-71
2024/04/05 08:40:49;;;;;;;22.13;5.80;;;;;;;11.82;100.00;100964.25;10068141;28;20075;-70
2024/04/05 08:45:45;;;;;;;19.65;4.20;;;;;;;12.03;100.00;100952.72;10080231;28;20043;-70
2024/04/05 08:50:42;;;;;;;22.92;4.40;;;;;;;12.18;100.00;100949.47;10040689;28;20075;-70
2024/04/05 08:55:40;;;;;;;22.67;5.10;;;;;;;12.62;100.00;100931.03;10093620;28;20075;-71
2024/04/05 09:00:38;;;;;;;21.65;5.18;;;;;;;12.72;100.00;100919.72;10084033;28;20441;-71
2024/04/05 09:05:34;;;;;;;23.33;6.32;;;;;;;13.04;100.00;100928.47;10084530;28;20079;-73
2024/04/05 09:10:29;;;;;;;26.92;5.13;;;;;;;13.23;100.00;100928.88;10053181;28;20043;-71
2024/04/05 09:15:26;;;;;;;21.95;4.97;;;;;;;13.50;100.00;100921.31;10044811;28;20070;-71
2024/04/05 09:20:29;;;;;;;20.90;5.63;;;;;;;13.63;100.00;100914.78;10070700;28;20495;-69
2024/04/05 09:25:24;;;;;;;21.83;4.55;;;;;;;13.78;100.00;100904.34;10063633;28;20073;-70
2024/04/05 09:30:21;;;;;;;22.20;6.05;;;;;;;13.79;100.00;100895.75;10066027;28;20054;-70
2024/04/05 09:35:18;;;;;;;17.33;5.93;;;;;;;13.93;100.00;100890.00;10040872;28;20098;-70
2024/04/05 09:40:16;;;;;;;23.77;5.63;;;;;;;14.07;100.00;100896.00;10092142;28;20121;-71
2024/04/05 09:45:12;;;;;;;17.52;4.85;;;;;;;14.28;100.00;100897.94;10072372;28;20078;-71
2024/04/05 09:50:08;;;;;;;17.58;4.75;;;;;;;14.39;100.00;100890.88;10072723;28;20078;-71
2024/04/05 09:55:08;;;;;;;9.20;4.22;;;;;;;14.91;100.00;100873.78;10066470;28;20047;-71
2024/04/05 10:00:15;;;;;;;14.50;4.88;;;;;;;15.08;100.00;100866.44;10066775;28;20283;-71
2024/04/05 10:05:12;;;;;;;10.93;5.07;;;;;;;15.07;100.00;100862.09;10066396;28;20079;-71
2024/04/05 10:10:09;;;;;;;10.50;4.35;;;;;;;15.49;100.00;100848.03;10065469;28;20098;-71
2024/04/05 10:15:06;;;;;;;13.23;4.80;;;;;;;15.57;100.00;100845.16;10081925;28;20553;-71
2024/04/05 10:20:05;;;;;;;15.30;5.88;;;;;;;15.90;100.00;100835.06;10068833;28;20079;-71
2024/04/05 10:25:02;;;;;;;12.70;5.10;;;;;;;15.94;100.00;100819.41;10042147;29;20083;-72
2024/04/05 10:30:03;;;;;;;11.90;6.00;;;;;;;15.75;100.00;100812.59;10047784;28;20091;-71
2024/04/05 10:35:06;;;;;;;10.15;5.55;;;;;;;15.57;100.00;100812.06;10042706;28;20075;-70
2024/04/05 10:40:03;;;;;;;;;;;;;;;15.40;100.00;100806.81;10050778;28;20087;-71
2024/04/05 10:44:58;;;;;;;12.15;5.35;;;;;;;15.39;100.00;100798.91;10067521;28;19973;-71
2024/04/05 10:50:03;;;;;;;13.05;5.13;;;;;;;15.53;100.00;100800.13;10087736;28;20047;-71
2024/04/05 10:55:12;;;;;;;14.07;5.47;;;;;;;15.55;100.00;100786.81;10043069;29;20086;-70
2024/04/05 11:00:11;;;;;;;16.13;4.93;;;;;;;15.32;100.00;100781.03;10027922;28;20082;-70
2024/04/05 11:05:13;;;;;;;10.60;6.10;;;;;;;15.24;100.00;100765.44;10085055;28;20090;-70
2024/04/05 11:10:14;;;;;;;11.63;4.82;;;;;;;15.12;100.00;100758.00;10052598;28;20051;-71
2024/04/05 11:15:10;;;;;;;13.97;5.50;;;;;;;15.04;100.00;100745.19;10050030;28;20079;-70
2024/04/05 11:20:13;;;;;;;9.68;4.78;;;;;;;15.09;100.00;100730.38;10069250;28;20060;-70
2024/04/05 11:25:20;;;;;;;12.77;5.35;;;;;;;15.16;100.00;100736.09;10086846;28;20082;-70
2024/04/05 11:30:16;;;;;;;13.77;5.80;;;;;;;15.11;100.00;100739.88;10070157;28;20087;-73
2024/04/05 11:35:14;;;;;;;9.98;5.85;;;;;;;15.05;100.00;100735.75;10088882;28;20133;-70
2024/04/05 11:40:11;;;;;;;10.18;4.80;;;;;;;15.06;100.00;100715.34;10071297;28;20087;-70
2024/04/05 11:45:09;;;;;;;11.93;5.30;;;;;;;14.98;100.00;100715.47;10084283;28;20090;-70
2024/04/05 11:50:05;;;;;;;14.18;5.38;;;;;;;14.87;100.00;100721.44;10033762;29;20094;-70
2024/04/05 11:55:00;;;;;;;11.60;5.40;;;;;;;14.82;100.00;100738.19;10049588;28;20058;-70
2024/04/05 11:59:57;;;;;;;10.80;5.35;;;;;;;14.73;100.00;100737.53;10058014;28;20053;-70
2024/04/05 12:04:52;;;;;;;8.02;4.63;;;;;;;14.25;100.00;100747.34;10082405;28;20086;-70
2024/04/05 12:09:48;;;;;;;9.85;4.97;;;;;;;13.88;100.00;100750.03;10073831;28;20062;-70
2024/04/05 12:14:43;;;;;;;9.52;4.78;;;;;;;13.78;100.00;100734.75;10065376;28;20043;-73
2024/04/05 12:19:39;;;;;;;8.95;4.30;;;;;;;13.75;100.00;100723.66;10071382;28;20055;-73
2024/04/05 12:24:34;;;;;;;14.38;4.50;;;;;;;13.77;100.00;100711.19;10070151;28;20063;-72
2024/04/05 12:29:30;;;;;;;16.25;4.20;;;;;;;13.77;100.00;100719.41;10084974;28;20035;-72
2024/04/05 12:34:25;;;;;;;15.18;4.25;;;;;;;13.79;100.00;100741.06;10070147;28;20507;-70
2024/04/05 12:39:29;;;;;;;12.85;4.38;;;;;;;13.77;100.00;100732.38;10104366;28;20504;-71
2024/04/05 12:44:27;;;;;;;9.82;4.45;;;;;;;13.71;100.00;100744.69;10103237;28;20121;-73
2024/04/05 12:49:23;;;;;;;27.05;4.47;;;;;;;13.50;100.00;100756.50;10077667;28;20512;-73
2024/04/05 12:54:19;;;;;;;12.38;3.92;;;;;;;13.50;100.00;100737.28;10086901;28;20063;-73
2024/04/05 12:59:14;;;;;;;12.75;4.43;;;;;;;13.62;100.00;100706.31;10064623;28;20078;-72
2024/04/05 13:04:11;;;;;;;14.50;3.58;;;;;;;13.63;100.00;100695.00;10066286;28;20503;-73
2024/04/05 13:09:13;;;;;;;11.73;4.40;;;;;;;13.58;100.00;100691.66;10075641;28;20071;-72
2024/04/05 13:14:09;;;;;;;10.00;3.00;;;;;;;13.57;100.00;100679.84;10079756;28;20063;-73
2024/04/05 13:19:04;;;;;;;12.10;3.97;;;;;;;13.53;100.00;100662.47;10093527;28;20090;-72
2024/04/05 13:24:00;;;;;;;9.57;3.72;;;;;;;13.42;100.00;100650.31;10092627;28;20055;-72
2024/04/05 13:28:56;;;;;;;9.23;3.05;;;;;;;13.35;100.00;100633.56;10055148;28;20113;-73
2024/04/05 13:33:51;;;;;;;12.52;3.50;;;;;;;13.26;100.00;100587.75;10062352;28;20078;-73
2024/04/05 13:38:47;;;;;;;8.20;3.15;;;;;;;13.28;100.00;100572.91;10082988;28;20051;-73
2024/04/05 13:43:43;;;;;;;13.90;3.00;;;;;;;13.18;100.00;100547.47;10081889;28;20519;-73
2024/04/05 13:48:42;;;;;;;7.18;3.20;;;;;;;13.11;100.00;100558.22;10104558;28;20074;-72
2024/04/05 13:53:38;;;;;;;8.57;2.45;;;;;;;13.08;100.00;100536.91;10052816;28;20073;-72
2024/04/05 13:58:34;;;;;;;10.10;3.08;;;;;;;13.09;100.00;100541.28;10043916;29;20075;-74
2024/04/05 14:03:30;;;;;;;8.77;2.55;;;;;;;13.07;100.00;100526.28;10078725;28;20081;-72
2024/04/05 14:08:29;;;;;;;8.38;2.60;;;;;;;13.01;100.00;100531.16;10095537;28;20043;-72
2024/04/05 14:13:25;;;;;;;10.85;2.13;;;;;;;12.99;100.00;100516.97;10097141;28;20063;-72
2024/04/05 14:18:21;;;;;;;11.90;2.72;;;;;;;13.02;100.00;100517.13;10082296;28;20140;-72
2024/04/05 14:23:17;;;;;;;14.88;3.17;;;;;;;12.94;100.00;100503.47;10060371;28;20796;-72
2024/04/05 14:28:13;;;;;;;7.15;2.13;;;;;;;12.92;100.00;100505.75;10063401;28;20113;-72
2024/04/05 14:33:09;;;;;;;9.30;2.50;;;;;;;12.98;100.00;100504.41;10073420;28;20082;-72
2024/04/05 14:38:04;;;;;;;8.75;2.92;;;;;;;12.94;100.00;100487.00;10091526;28;20471;-71
2024/04/05 14:43:02;;;;;;;10.50;3.65;;;;;;;12.99;100.00;100497.78;10053409;28;20043;-72
2024/04/05 14:47:58;;;;;;;10.07;2.78;;;;;;;12.99;100.00;100495.03;10056037;28;20448;-72
2024/04/05 14:52:53;;;;;;;10.05;2.83;;;;;;;12.95;100.00;100477.63;10088418;28;20039;-72
2024/04/05 14:57:49;;;;;;;8.35;2.58;;;;;;;12.92;100.00;100461.84;10078507;28;20047;-72
2024/04/05 15:02:44;;;;;;;8.02;2.50;;;;;;;12.98;100.00;100482.47;10075214;28;20098;-71
2024/04/05 15:07:40;;;;;;;12.57;2.47;;;;;;;13.15;100.00;100460.28;10075125;28;20057;-72
2024/04/05 15:12:37;;;;;;;9.25;3.42;;;;;;;13.54;100.00;100427.84;10088189;28;20118;-72
2024/04/05 15:17:34;;;;;;;7.57;3.20;;;;;;;13.29;100.00;100431.75;10097107;28;20784;-72
2024/04/05 15:22:29;;;;;;;6.50;2.25;;;;;;;13.21;100.00;100426.00;10070771;28;20688;-74
2024/04/05 15:27:25;;;;;;;8.73;3.17;;;;;;;13.13;100.00;100412.38;10075996;28;20125;-72
2024/04/05 15:32:21;;;;;;;9.35;2.63;;;;;;;13.07;100.00;100402.78;10074385;28;20200;-72
2024/04/05 15:37:17;;;;;;;6.25;2.22;;;;;;;13.03;100.00;100424.59;10076090;28;20043;-72
2024/04/05 15:42:13;;;;;;;9.48;2.08;;;;;;;12.99;100.00;100415.44;10090420;28;20090;-72
2024/04/05 15:47:08;;;;;;;7.82;2.08;;;;;;;13.01;100.00;100427.69;10073715;28;20071;-74
2024/04/05 15:52:04;;;;;;;5.45;1.75;;;;;;;13.04;100.00;100432.50;10106734;28;20047;-72
2024/04/05 15:57:00;;;;;;;5.13;1.92;;;;;;;13.80;100.00;100429.41;10085112;28;20044;-72
2024/04/05 16:01:56;;;;;;;5.28;2.00;;;;;;;15.02;100.00;100452.09;10065008;28;21277;-72
2024/04/05 16:06:51;;;;;;;4.63;1.95;;;;;;;14.80;100.00;100483.75;10086078;28;20134;-73
2024/04/05 16:11:47;;;;;;;4.68;2.15;;;;;;;14.65;100.00;100497.09;10098978;28;20047;-72
2024/04/05 16:16:42;;;;;;;5.25;2.80;;;;;;;14.21;100.00;100512.72;10085475;28;20065;-72
2024/04/05 16:21:38;;;;;;;3.90;2.47;;;;;;;14.82;100.00;100526.25;10072608;28;20093;-73
2024/04/05 16:26:33;;;;;;;4.90;2.53;;;;;;;15.30;100.00;100521.66;10084994;28;20040;-74
2024/04/05 16:31:30;;;;;;;5.43;2.70;;;;;;;14.70;100.00;100526.31;10075738;28;20039;-72
2024/04/05 16:36:26;;;;;;;6.30;2.83;;;;;;;14.17;100.00;100542.84;10087490;28;20066;-72
2024/04/05 16:41:22;;;;;;;6.57;2.70;;;;;;;13.94;100.00;100561.75;10077555;28;20058;-74
2024/04/05 16:46:18;;;;;;;5.90;2.50;;;;;;;13.84;100.00;100581.47;10071437;28;20075;-73
2024/04/05 16:51:16;;;;;;;6.22;2.60;;;;;;;13.82;100.00;100594.75;10079237;28;20466;-72
2024/04/05 16:56:12;;;;;;;5.45;2.88;;;;;;;13.83;100.00;100593.56;10076465;28;20058;-72
2024/04/05 17:01:15;;;;;;;5.03;2.17;;;;;;;14.21;100.00;100630.94;10080529;28;20077;-72
2024/04/05 17:06:18;;;;;;;5.60;3.10;;;;;;;14.40;100.00;100600.09;10079532;28;20066;-72
2024/04/05 17:11:16;;;;;;;12.45;4.38;;;;;;;14.66;100.00;100596.97;10119881;28;20294;-73
2024/04/05 17:16:12;;;;;;;5.93;3.60;;;;;;;14.21;100.00;100587.75;10099382;28;20082;-72
2024/04/05 17:21:08;;;;;;;6.75;3.78;;;;;;;14.03;100.00;100598.16;10082228;28;20109;-72
2024/04/05 17:26:05;;;;;;;3.70;2.88;;;;;;;13.86;100.00;100614.91;10091334;28;20063;-73
2024/04/05 17:31:02;;;;;;;4.97;3.10;;;;;;;13.83;100.00;100637.56;10098359;28;20071;-72
2024/04/05 17:35:57;;;;;;;6.25;3.72;;;;;;;13.83;100.00;100621.88;10093019;28;20077;-72
2024/04/05 17:40:54;;;;;;;6.80;3.72;;;;;;;13.58;100.00;100648.50;10100324;28;20054;-73
2024/04/05 17:45:50;;;;;;;7.35;3.45;;;;;;;13.54;100.00;100658.56;10092857;28;20071;-72
2024/04/05 17:50:45;;;;;;;5.32;3.13;;;;;;;13.48;100.00;100665.41;10099681;28;20070;-72
2024/04/05 17:55:41;;;;;;;9.68;3.58;;;;;;;13.41;100.00;100679.72;10098856;28;20134;-72
2024/04/05 18:00:36;;;;;;;7.40;4.00;;;;;;;13.31;100.00;100693.06;10074932;28;20106;-72
2024/04/05 18:05:32;;;;;;;6.40;3.50;;;;;;;13.25;100.00;100709.69;10094777;28;20043;-72
2024/04/05 18:10:27;;;;;;;9.07;3.95;;;;;;;13.19;100.00;100729.47;10077772;28;20163;-72
2024/04/05 18:15:23;;;;;;;11.68;4.03;;;;;;;13.13;100.00;100731.59;10111505;28;20047;-73
2024/04/05 18:20:18;;;;;;;7.35;3.35;;;;;;;13.12;100.00;100745.66;10076461;28;20049;-73
2024/04/05 18:25:14;;;;;;;7.18;3.88;;;;;;;13.07;100.00;100754.91;10077126;28;20734;-73
2024/04/05 18:30:10;;;;;;;7.63;3.88;;;;;;;12.98;100.00;100759.66;10080445;28;20051;-72
2024/04/05 18:35:08;;;;;;;8.98;3.63;;;;;;;13.02;100.00;100775.13;10077647;28;20055;-72
2024/04/05 18:40:08;;;;;;;8.55;4.13;;;;;;;13.03;100.00;100786.88;10073382;28;20051;-72
2024/04/05 18:45:08;;;;;;;9.30;5.13;;;;;;;13.05;100.00;100806.56;10094797;28;20091;-75
2024/04/05 18:50:07;;;;;;;6.90;3.63;;;;;;;13.11;100.00;100809.91;10089796;28;20091;-73
2024/04/05 18:55:08;;;;;;;8.45;4.38;;;;;;;13.09;100.00;100825.91;10078915;28;20570;-72
2024/04/05 19:00:09;;;;;;;15.23;4.65;;;;;;;13.07;100.00;100825.47;10081491;28;20091;-73
2024/04/05 19:05:07;;;;;;;8.10;3.55;;;;;;;13.02;100.00;100834.69;10069363;28;20086;-73
2024/04/05 19:10:03;;;;;;;11.73;3.97;;;;;;;12.92;100.00;100840.53;10087638;28;20079;-72
2024/04/05 19:14:59;;;;;;;7.25;3.60;;;;;;;12.76;100.00;100849.31;10093765;28;20539;-73
2024/04/05 19:19:56;;;;;;;10.00;4.03;;;;;;;12.72;100.00;100853.88;10089795;28;20089;-73
2024/04/05 19:24:52;;;;;;;9.25;3.92;;;;;;;12.70;100.00;100863.56;10077684;28;20087;-72
2024/04/05 19:29:49;;;;;;;8.52;4.28;;;;;;;12.65;100.00;100870.03;10068850;28;20130;-72
2024/04/05 19:34:46;;;;;;;11.23;5.15;;;;;;;12.56;100.00;100877.50;10086386;28;20051;-72
2024/04/05 19:39:50;;;;;;;7.80;4.15;;;;;;;12.50;100.00;100878.78;10090622;28;20078;-72
2024/04/05 19:44:46;;;;;;;14.48;4.63;;;;;;;12.47;100.00;100880.25;10076197;28;20082;-72
2024/04/05 19:49:42;;;;;;;14.95;4.15;;;;;;;12.40;100.00;100888.97;10072063;28;20075;-72
2024/04/05 19:54:39;;;;;;;11.82;4.47;;;;;;;12.42;100.00;100894.16;10089947;28;20507;-74
2024/04/05 19:59:35;;;;;;;11.85;3.58;;;;;;;12.49;100.00;100910.09;10042006;29;20086;-72
2024/04/05 20:04:30;;;;;;;8.25;4.20;;;;;;;12.43;100.00;100901.22;10098261;28;20397;-72
2024/04/05 20:09:32;;;;;;;9.88;3.90;;;;;;;12.40;100.00;100907.38;10050171;29;20043;-72
2024/04/05 20:14:30;;;;;;;11.77;4.70;;;;;;;12.42;100.00;100899.63;10085213;28;20070;-72
2024/04/05 20:19:26;;;;;;;9.45;4.22;;;;;;;12.45;100.00;100914.63;10071949;28;20130;-72
2024/04/05 20:24:22;;;;;;;13.00;4.00;;;;;;;12.34;100.00;100920.44;10093492;28;20050;-72
2024/04/05 20:34:32;;;;;;;13.85;4.65;;;;;;;12.30;100.00;100924.97;10077833;28;20456;-72
2024/04/05 20:39:27;;;;;;;9.23;4.38;;;;;;;12.21;100.00;100932.41;10072509;28;20118;-73
2024/04/05 20:44:23;;;;;;;9.90;4.72;;;;;;;12.21;100.00;100937.88;10069836;28;20058;-72
2024/04/05 20:49:18;;;;;;;15.32;4.82;;;;;;;12.30;100.00;100930.44;10075454;28;20051;-72
2024/04/05 20:54:14;;;;;;;9.60;3.83;;;;;;;12.27;100.00;100936.56;10069075;28;20067;-72
2024/04/05 20:59:10;;;;;;;12.82;4.00;;;;;;;12.34;100.00;100936.88;10065062;28;20054;-72
2024/04/05 21:04:06;;;;;;;10.10;3.90;;;;;;;12.36;100.00;100929.13;10069886;28;20125;-72
2024/04/05 21:09:03;;;;;;;8.93;4.55;;;;;;;12.38;100.00;100937.84;10105789;28;20463;-71
2024/04/05 21:13:59;;;;;;;9.43;4.00;;;;;;;12.36;100.00;100945.59;10099639;28;20042;-72
2024/04/05 21:18:54;;;;;;;17.13;5.55;;;;;;;12.39;100.00;100950.44;10065683;28;20043;-73
2024/04/05 21:23:50;;;;;;;9.75;3.60;;;;;;;12.35;100.00;100944.00;10072028;28;20043;-72
2024/04/05 21:28:46;;;;;;;8.93;3.60;;;;;;;12.32;100.00;100950.13;10066255;28;20050;-72
2024/04/05 21:33:41;;;;;;;11.85;4.70;;;;;;;12.25;100.00;100960.75;10088411;28;20050;-72
2024/04/05 21:38:37;;;;;;;15.48;4.47;;;;;;;12.18;100.00;100968.66;10076206;28;20043;-72
2024/04/05 21:43:33;;;;;;;12.35;4.13;;;;;;;12.04;100.00;100966.06;10090387;28;20049;-73
2024/04/05 21:48:29;;;;;;;11.07;3.65;;;;;;;12.15;100.00;100966.56;10091202;28;20460;-71
2024/04/05 21:53:25;;;;;;;9.32;4.22;;;;;;;12.10;100.00;100980.44;10075921;28;20058;-72
2024/04/05 21:58:22;;;;;;;14.90;4.72;;;;;;;12.04;100.00;100971.56;10075510;28;20035;-72
2024/04/05 22:03:19;;;;;;;9.93;3.97;;;;;;;12.05;100.00;100980.59;10098044;28;20567;-72
2024/04/05 22:08:14;;;;;;;10.10;4.10;;;;;;;12.00;100.00;100976.88;10074296;28;20051;-73
2024/04/05 22:13:12;;;;;;;8.27;3.90;;;;;;;11.99;100.00;100968.97;10099862;28;20643;-72
2024/04/05 22:18:07;;;;;;;12.73;4.65;;;;;;;12.05;100.00;100967.69;10086058;28;20083;-71
2024/04/05 22:23:03;;;;;;;9.55;4.30;;;;;;;11.99;100.00;100972.50;10077883;28;20116;-73
2024/04/05 22:28:00;;;;;;;14.13;4.05;;;;;;;11.96;100.00;100986.88;10072314;28;20046;-72